createdAt,value
2018-12-07T00:00:53.357Z,991.96
2018-12-07T00:01:53.530Z,991.95
2018-12-07T00:02:53.702Z,991.93
2018-12-07T00:03:53.934Z,991.94
2018-12-07T00:04:53.995Z,991.92
2018-12-07T00:05:54.177Z,991.91
2018-12-07T00:06:54.358Z,991.87
2018-12-07T00:07:54.593Z,991.91
2018-12-07T00:08:54.695Z,991.91
2018-12-07T00:09:54.866Z,991.93
2018-12-07T00:10:55.049Z,991.89
2018-12-07T00:11:55.223Z,991.88
2018-12-07T00:12:55.411Z,991.88
2018-12-07T00:13:55.609Z,991.88
2018-12-07T00:14:55.772Z,991.87
2018-12-07T00:15:55.952Z,991.87
2018-12-07T00:16:56.124Z,991.90
2018-12-07T00:17:56.305Z,991.93
2018-12-07T00:18:56.485Z,991.89
2018-12-07T00:19:56.652Z,991.92
2018-12-07T00:20:56.812Z,991.92
2018-12-07T00:21:57.006Z,991.95
2018-12-07T00:22:57.179Z,991.94
2018-12-07T00:23:57.345Z,991.93
2018-12-07T00:24:57.516Z,991.95
2018-12-07T00:25:57.679Z,991.92
2018-12-07T00:26:57.864Z,991.88
2018-12-07T00:27:58.042Z,991.95
2018-12-07T00:28:58.220Z,991.91
2018-12-07T00:29:58.406Z,991.95
2018-12-07T00:30:58.586Z,991.93
2018-12-07T00:31:58.762Z,991.86
2018-12-07T00:32:58.931Z,991.84
2018-12-07T00:33:59.113Z,991.86
2018-12-07T00:34:59.273Z,991.86
2018-12-07T00:35:59.454Z,991.87
2018-12-07T00:36:59.614Z,991.86
2018-12-07T00:37:59.785Z,991.83
2018-12-07T00:38:59.947Z,991.79
2018-12-07T00:40:00.119Z,991.72
2018-12-07T00:41:00.303Z,991.70
2018-12-07T00:42:00.467Z,991.67
2018-12-07T00:43:00.633Z,991.66
2018-12-07T00:44:00.814Z,991.60
2018-12-07T00:45:00.988Z,991.58
2018-12-07T00:46:01.156Z,991.57
2018-12-07T00:47:01.332Z,991.58
2018-12-07T00:48:01.519Z,991.55
2018-12-07T00:49:01.683Z,991.52
2018-12-07T00:50:01.849Z,991.56
2018-12-07T00:51:02.022Z,991.45
2018-12-07T00:52:02.204Z,991.48
2018-12-07T00:53:02.382Z,991.42
2018-12-07T00:54:02.555Z,991.47
2018-12-07T00:55:02.723Z,991.46
2018-12-07T00:56:02.911Z,991.45
2018-12-07T00:57:03.079Z,991.43
2018-12-07T00:58:03.266Z,991.41
2018-12-07T00:59:03.430Z,991.33
2018-12-07T01:00:03.597Z,991.40
2018-12-07T01:01:03.760Z,991.36
2018-12-07T01:02:03.921Z,991.41
2018-12-07T01:03:04.087Z,991.46
2018-12-07T01:04:04.274Z,991.41
2018-12-07T01:05:04.469Z,991.42
2018-12-07T01:06:04.633Z,991.42
2018-12-07T01:07:04.806Z,991.38
2018-12-07T01:08:04.966Z,991.44
2018-12-07T01:09:05.129Z,991.42
2018-12-07T01:10:05.295Z,991.40
2018-12-07T01:11:05.483Z,991.50
2018-12-07T01:12:05.661Z,991.45
2018-12-07T01:13:05.844Z,991.49
2018-12-07T01:14:06.024Z,991.44
2018-12-07T01:15:06.186Z,991.45
2018-12-07T01:16:06.357Z,991.43
2018-12-07T01:17:06.517Z,991.43
2018-12-07T01:18:06.685Z,991.43
2018-12-07T01:19:06.853Z,991.46
2018-12-07T01:20:07.019Z,991.43
2018-12-07T01:21:07.183Z,991.43
2018-12-07T01:22:07.356Z,991.40
2018-12-07T01:23:07.520Z,991.40
2018-12-07T01:24:07.699Z,991.44
2018-12-07T01:25:07.880Z,991.33
2018-12-07T01:26:08.040Z,991.33
2018-12-07T01:27:08.209Z,991.29
2018-12-07T01:28:08.375Z,991.27
2018-12-07T01:29:08.531Z,991.29
2018-12-07T01:30:08.697Z,991.24
2018-12-07T01:31:08.941Z,991.26
2018-12-07T01:32:14.983Z,991.28
2018-12-07T01:33:09.200Z,991.23
2018-12-07T01:34:09.365Z,991.22
2018-12-07T01:35:09.532Z,991.23
2018-12-07T01:36:09.699Z,991.22
2018-12-07T01:37:09.862Z,991.17
2018-12-07T01:38:10.025Z,991.18
2018-12-07T01:39:10.202Z,991.20
2018-12-07T01:40:10.386Z,991.11
2018-12-07T01:41:10.616Z,991.13
2018-12-07T01:42:10.786Z,991.14
2018-12-07T01:43:10.964Z,991.14
2018-12-07T01:44:11.130Z,991.11
2018-12-07T01:45:11.292Z,991.13
2018-12-07T01:46:11.458Z,991.11
2018-12-07T01:47:11.641Z,991.07
2018-12-07T01:48:11.814Z,991.08
2018-12-07T01:49:11.973Z,991.06
2018-12-07T01:50:12.142Z,991.01
2018-12-07T01:51:12.322Z,991.00
2018-12-07T01:52:12.500Z,990.96
2018-12-07T01:53:12.689Z,990.99
2018-12-07T01:54:12.863Z,990.96
2018-12-07T01:55:13.034Z,990.98
2018-12-07T01:56:13.200Z,990.94
2018-12-07T01:57:13.365Z,990.92
2018-12-07T01:58:13.527Z,990.94
2018-12-07T01:59:13.698Z,990.97
2018-12-07T02:00:13.867Z,990.94
2018-12-07T02:01:14.043Z,990.91
2018-12-07T02:02:17.695Z,990.87
2018-12-07T02:03:16.129Z,990.91
2018-12-07T02:04:16.523Z,990.86
2018-12-07T02:05:18.434Z,990.88
2018-12-07T02:06:18.116Z,990.84
2018-12-07T02:07:18.983Z,990.89
2018-12-07T02:08:15.278Z,990.87
2018-12-07T02:09:16.024Z,990.87
2018-12-07T02:10:15.552Z,990.85
2018-12-07T02:11:15.773Z,990.90
2018-12-07T02:12:15.918Z,990.83
2018-12-07T02:13:16.096Z,990.79
2018-12-07T02:14:19.270Z,990.84
2018-12-07T02:15:16.446Z,990.86
2018-12-07T02:16:16.638Z,990.83
2018-12-07T02:17:16.807Z,990.81
2018-12-07T02:18:16.970Z,990.82
2018-12-07T02:19:17.137Z,990.78
2018-12-07T02:20:17.305Z,990.77
2018-12-07T02:21:17.476Z,990.73
2018-12-07T02:22:17.646Z,990.77
2018-12-07T02:23:17.814Z,990.76
2018-12-07T02:24:17.985Z,990.76
2018-12-07T02:25:18.157Z,990.79
2018-12-07T02:26:18.326Z,990.77
2018-12-07T02:27:18.496Z,990.75
2018-12-07T02:28:18.666Z,990.75
2018-12-07T02:29:18.823Z,990.75
2018-12-07T02:30:18.990Z,990.76
2018-12-07T02:31:19.157Z,990.70
2018-12-07T02:32:19.325Z,990.68
2018-12-07T02:33:19.497Z,990.68
2018-12-07T02:34:19.661Z,990.64
2018-12-07T02:35:19.847Z,990.66
2018-12-07T02:36:20.014Z,990.67
2018-12-07T02:37:20.184Z,990.63
2018-12-07T02:38:20.360Z,990.62
2018-12-07T02:39:20.581Z,990.62
2018-12-07T02:40:20.695Z,990.59
2018-12-07T02:41:20.864Z,990.63
2018-12-07T02:42:21.031Z,990.58
2018-12-07T02:43:21.200Z,990.55
2018-12-07T02:44:21.366Z,990.56
2018-12-07T02:45:21.533Z,990.53
2018-12-07T02:46:21.702Z,990.52
2018-12-07T02:47:21.950Z,990.50
2018-12-07T02:48:22.029Z,990.51
2018-12-07T02:49:22.202Z,990.53
2018-12-07T02:50:22.370Z,990.52
2018-12-07T02:51:22.541Z,990.51
2018-12-07T02:52:22.716Z,990.49
2018-12-07T02:53:22.881Z,990.51
2018-12-07T02:54:23.042Z,990.47
2018-12-07T02:55:23.277Z,990.48
2018-12-07T02:56:23.371Z,990.45
2018-12-07T02:57:23.540Z,990.46
2018-12-07T02:58:23.720Z,990.45
2018-12-07T02:59:23.882Z,990.48
2018-12-07T03:00:24.050Z,990.44
2018-12-07T03:01:24.221Z,990.53
2018-12-07T03:02:24.398Z,990.42
2018-12-07T03:03:24.569Z,990.42
2018-12-07T03:04:24.736Z,990.43
2018-12-07T03:05:24.964Z,990.42
2018-12-07T03:06:25.078Z,990.42
2018-12-07T03:07:25.244Z,990.41
2018-12-07T03:08:25.410Z,990.45
2018-12-07T03:09:25.581Z,990.42
2018-12-07T03:10:25.743Z,990.40
2018-12-07T03:11:25.907Z,990.39
2018-12-07T03:12:26.081Z,990.42
2018-12-07T03:13:26.253Z,990.37
2018-12-07T03:14:26.419Z,990.39
2018-12-07T03:15:26.590Z,990.40
2018-12-07T03:16:26.764Z,990.37
2018-12-07T03:17:26.922Z,990.34
2018-12-07T03:18:27.092Z,990.29
2018-12-07T03:19:27.270Z,990.33
2018-12-07T03:20:27.434Z,990.29
2018-12-07T03:21:27.599Z,990.31
2018-12-07T03:22:27.765Z,990.30
2018-12-07T03:23:27.931Z,990.29
2018-12-07T03:24:28.098Z,990.26
2018-12-07T03:25:28.265Z,990.24
2018-12-07T03:26:28.435Z,990.23
2018-12-07T03:27:28.606Z,990.24
2018-12-07T03:28:28.782Z,990.23
2018-12-07T03:29:28.946Z,990.25
2018-12-07T03:30:29.124Z,990.23
2018-12-07T03:31:29.277Z,990.21
2018-12-07T03:32:29.468Z,990.24
2018-12-07T03:33:29.612Z,990.24
2018-12-07T03:34:29.786Z,990.23
2018-12-07T03:35:29.957Z,990.21
2018-12-07T03:36:30.118Z,990.16
2018-12-07T03:37:30.280Z,990.14
2018-12-07T03:38:30.454Z,990.13
2018-12-07T03:39:30.623Z,990.13
2018-12-07T03:40:30.787Z,990.16
2018-12-07T03:41:30.952Z,990.12
2018-12-07T03:42:31.651Z,990.10
2018-12-07T03:43:31.260Z,990.15
2018-12-07T03:44:31.426Z,990.16
2018-12-07T03:45:31.602Z,990.11
2018-12-07T03:46:31.779Z,990.12
2018-12-07T03:47:31.952Z,990.09
2018-12-07T03:48:32.127Z,990.09
2018-12-07T03:49:32.300Z,990.07
2018-12-07T03:50:32.507Z,990.04
2018-12-07T03:51:32.689Z,990.05
2018-12-07T03:52:32.856Z,990.07
2018-12-07T03:53:33.033Z,990.05
2018-12-07T03:54:33.202Z,990.04
2018-12-07T03:55:33.392Z,990.01
2018-12-07T03:56:33.965Z,990.02
2018-12-07T03:57:33.707Z,990.02
2018-12-07T03:58:33.881Z,989.97
2018-12-07T03:59:34.049Z,989.97
2018-12-07T04:00:34.216Z,989.98
2018-12-07T04:01:34.378Z,989.99
2018-12-07T04:02:34.545Z,989.96
2018-12-07T04:03:34.719Z,989.92
2018-12-07T04:04:34.887Z,989.95
2018-12-07T04:05:35.053Z,989.87
2018-12-07T04:06:35.226Z,989.89
2018-12-07T04:07:35.395Z,989.84
2018-12-07T04:08:35.559Z,989.85
2018-12-07T04:09:35.729Z,989.82
2018-12-07T04:10:35.898Z,989.79
2018-12-07T04:11:36.075Z,989.79
2018-12-07T04:12:36.247Z,989.77
2018-12-07T04:13:36.420Z,989.75
2018-12-07T04:14:36.585Z,989.68
2018-12-07T04:15:36.785Z,989.63
2018-12-07T04:16:36.957Z,989.67
2018-12-07T04:17:37.143Z,989.64
2018-12-07T04:18:37.305Z,989.64
2018-12-07T04:19:37.461Z,989.62
2018-12-07T04:20:37.636Z,989.60
2018-12-07T04:21:37.800Z,989.61
2018-12-07T04:22:37.972Z,989.57
2018-12-07T04:23:38.133Z,989.57
2018-12-07T04:24:38.303Z,989.61
2018-12-07T04:25:38.471Z,989.58
2018-12-07T04:26:38.639Z,989.60
2018-12-07T04:27:38.807Z,989.58
2018-12-07T04:28:38.981Z,989.53
2018-12-07T04:29:39.153Z,989.54
2018-12-07T04:30:39.329Z,989.54
2018-12-07T04:31:39.496Z,989.53
2018-12-07T04:32:39.674Z,989.57
2018-12-07T04:33:39.835Z,989.53
2018-12-07T04:34:39.995Z,989.50
2018-12-07T04:35:40.164Z,989.49
2018-12-07T04:36:40.334Z,989.50
2018-12-07T04:37:40.499Z,989.55
2018-12-07T04:38:40.672Z,989.50
2018-12-07T04:39:40.844Z,989.45
2018-12-07T04:40:41.015Z,989.47
2018-12-07T04:41:41.185Z,989.50
2018-12-07T04:42:41.352Z,989.49
2018-12-07T04:43:41.521Z,989.43
2018-12-07T04:44:41.715Z,989.45
2018-12-07T04:45:41.875Z,989.41
2018-12-07T04:46:42.053Z,989.40
2018-12-07T04:47:42.218Z,989.42
2018-12-07T04:48:42.387Z,989.39
2018-12-07T04:49:42.553Z,989.38
2018-12-07T04:50:42.733Z,989.35
2018-12-07T04:51:42.895Z,989.35
2018-12-07T04:52:43.085Z,989.33
2018-12-07T04:53:43.256Z,989.34
2018-12-07T04:54:43.425Z,989.36
2018-12-07T04:55:43.593Z,989.35
2018-12-07T04:56:43.761Z,989.28
2018-12-07T04:57:43.928Z,989.28
2018-12-07T04:58:44.098Z,989.27
2018-12-07T04:59:44.273Z,989.27
2018-12-07T05:00:44.435Z,989.27
2018-12-07T05:01:44.607Z,989.25
2018-12-07T05:02:44.775Z,989.26
2018-12-07T05:03:44.940Z,989.19
2018-12-07T05:04:45.112Z,989.19
2018-12-07T05:05:45.282Z,989.20
2018-12-07T05:06:45.457Z,989.20
2018-12-07T05:07:45.619Z,989.19
2018-12-07T05:08:45.792Z,989.19
2018-12-07T05:09:45.957Z,989.18
2018-12-07T05:10:46.138Z,989.20
2018-12-07T05:11:46.294Z,989.20
2018-12-07T05:12:46.464Z,989.14
2018-12-07T05:13:46.629Z,989.13
2018-12-07T05:14:46.807Z,989.13
2018-12-07T05:15:46.975Z,989.11
2018-12-07T05:16:47.135Z,989.12
2018-12-07T05:17:47.295Z,989.09
2018-12-07T05:18:47.489Z,989.12
2018-12-07T05:19:47.633Z,989.05
2018-12-07T05:20:47.803Z,989.01
2018-12-07T05:21:47.969Z,989.06
2018-12-07T05:22:48.135Z,988.96
2018-12-07T05:23:48.331Z,989.00
2018-12-07T05:24:48.506Z,989.01
2018-12-07T05:25:48.686Z,988.99
2018-12-07T05:26:48.846Z,989.01
2018-12-07T05:27:49.019Z,988.99
2018-12-07T05:28:49.197Z,988.99
2018-12-07T05:29:49.357Z,988.95
2018-12-07T05:30:49.526Z,988.92
2018-12-07T05:31:49.695Z,988.93
2018-12-07T05:32:49.868Z,988.92
2018-12-07T05:33:50.063Z,988.92
2018-12-07T05:34:50.231Z,988.90
2018-12-07T05:35:50.416Z,988.90
2018-12-07T05:36:50.786Z,988.92
2018-12-07T05:37:50.747Z,988.91
2018-12-07T05:38:50.915Z,988.91
2018-12-07T05:39:51.082Z,988.92
2018-12-07T05:40:51.248Z,988.92
2018-12-07T05:41:51.421Z,988.89
2018-12-07T05:42:51.592Z,988.96
2018-12-07T05:43:51.791Z,988.92
2018-12-07T05:44:51.941Z,988.92
2018-12-07T05:45:52.121Z,988.93
2018-12-07T05:46:52.288Z,988.91
2018-12-07T05:47:52.452Z,988.86
2018-12-07T05:48:52.616Z,988.84
2018-12-07T05:49:53.496Z,988.84
2018-12-07T05:50:52.954Z,988.81
2018-12-07T05:51:53.123Z,988.82
2018-12-07T05:52:53.283Z,988.80
2018-12-07T05:53:53.453Z,988.79
2018-12-07T05:54:53.623Z,988.74
2018-12-07T05:55:53.804Z,988.79
2018-12-07T05:56:53.965Z,988.72
2018-12-07T05:57:54.134Z,988.76
2018-12-07T05:58:54.308Z,988.75
2018-12-07T05:59:54.494Z,988.70
2018-12-07T06:00:54.684Z,988.68
2018-12-07T06:01:54.808Z,988.71
2018-12-07T06:02:54.987Z,988.72
2018-12-07T06:03:55.145Z,988.69
2018-12-07T06:04:55.324Z,988.65
2018-12-07T06:05:55.481Z,988.62
2018-12-07T06:06:55.646Z,988.65
2018-12-07T06:07:55.828Z,988.64
2018-12-07T06:08:56.114Z,988.63
2018-12-07T06:09:56.161Z,988.63
2018-12-07T06:10:56.300Z,988.63
2018-12-07T06:11:56.544Z,988.60
2018-12-07T06:12:56.607Z,988.58
2018-12-07T06:13:56.824Z,988.53
2018-12-07T06:14:57.130Z,988.56
2018-12-07T06:15:57.209Z,988.53
2018-12-07T06:16:57.574Z,988.56
2018-12-07T06:17:57.604Z,988.56
2018-12-07T06:18:57.720Z,988.56
2018-12-07T06:19:57.798Z,988.56
2018-12-07T06:20:57.882Z,988.53
2018-12-07T06:21:58.103Z,988.50
2018-12-07T06:22:58.207Z,988.48
2018-12-07T06:23:58.393Z,988.49
2018-12-07T06:24:58.622Z,988.44
2018-12-07T06:25:58.830Z,988.47
2018-12-07T06:26:59.063Z,988.43
2018-12-07T06:27:59.143Z,988.47
2018-12-07T06:28:59.268Z,988.45
2018-12-07T06:29:59.393Z,988.42
2018-12-07T06:30:59.455Z,988.40
2018-12-07T06:31:59.676Z,988.40
2018-12-07T06:32:59.794Z,988.41
2018-12-07T06:33:59.889Z,988.43
2018-12-07T06:35:00.197Z,988.48
2018-12-07T06:36:00.294Z,988.49
2018-12-07T06:37:00.523Z,988.46
2018-12-07T06:38:00.642Z,988.43
2018-12-07T06:39:00.780Z,988.47
2018-12-07T06:40:00.871Z,988.45
2018-12-07T06:41:01.052Z,988.47
2018-12-07T06:42:01.163Z,988.46
2018-12-07T06:43:01.309Z,988.45
2018-12-07T06:44:01.562Z,988.41
2018-12-07T06:45:01.706Z,988.38
2018-12-07T06:46:01.798Z,988.43
2018-12-07T06:47:02.040Z,988.40
2018-12-07T06:48:02.114Z,988.39
2018-12-07T06:49:02.475Z,988.42
2018-12-07T06:50:04.002Z,988.41
2018-12-07T06:51:05.599Z,988.41
2018-12-07T06:52:04.368Z,988.40
2018-12-07T06:53:04.634Z,988.37
2018-12-07T06:54:04.482Z,988.34
2018-12-07T06:55:04.038Z,988.30
2018-12-07T06:56:05.019Z,988.29
2018-12-07T06:57:04.157Z,988.29
2018-12-07T06:58:04.902Z,988.25
2018-12-07T06:59:04.776Z,988.27
2018-12-07T07:00:05.386Z,988.27
2018-12-07T07:01:05.633Z,988.33
2018-12-07T07:02:05.550Z,988.31
2018-12-07T07:03:06.768Z,988.33
2018-12-07T07:04:06.287Z,988.36
2018-12-07T07:05:07.030Z,988.33
2018-12-07T07:06:06.089Z,988.27
2018-12-07T07:07:07.646Z,988.27
2018-12-07T07:08:07.075Z,988.26
2018-12-07T07:09:08.825Z,988.22
2018-12-07T07:10:07.491Z,988.21
2018-12-07T07:11:09.145Z,988.21
2018-12-07T07:12:05.885Z,988.23
2018-12-07T07:13:06.003Z,988.25
2018-12-07T07:14:06.182Z,988.23
2018-12-07T07:15:06.355Z,988.21
2018-12-07T07:16:06.525Z,988.22
2018-12-07T07:17:06.695Z,988.24
2018-12-07T07:18:06.862Z,988.24
2018-12-07T07:19:07.031Z,988.22
2018-12-07T07:20:07.207Z,988.21
2018-12-07T07:21:07.373Z,988.22
2018-12-07T07:22:11.851Z,988.24
2018-12-07T07:23:10.455Z,988.18
2018-12-07T07:24:11.129Z,988.22
2018-12-07T07:25:12.396Z,988.19
2018-12-07T07:26:08.419Z,988.25
2018-12-07T07:27:10.652Z,988.22
2018-12-07T07:28:11.623Z,988.21
2018-12-07T07:29:11.420Z,988.24
2018-12-07T07:30:09.977Z,988.24
2018-12-07T07:31:11.227Z,988.24
2018-12-07T07:32:11.493Z,988.22
2018-12-07T07:33:09.360Z,988.23
2018-12-07T07:34:09.692Z,988.29
2018-12-07T07:35:09.814Z,988.25
2018-12-07T07:36:09.907Z,988.26
2018-12-07T07:37:12.112Z,988.22
2018-12-07T07:38:10.580Z,988.21
2018-12-07T07:39:10.709Z,988.19
2018-12-07T07:40:10.482Z,988.24
2018-12-07T07:41:10.677Z,988.24
2018-12-07T07:42:10.673Z,988.21
2018-12-07T07:43:10.889Z,988.25
2018-12-07T07:44:11.060Z,988.21
2018-12-07T07:45:11.139Z,988.25
2018-12-07T07:46:11.283Z,988.27
2018-12-07T07:47:11.398Z,988.27
2018-12-07T07:48:11.606Z,988.21
2018-12-07T07:49:11.814Z,988.24
2018-12-07T07:50:12.040Z,988.22
2018-12-07T07:51:12.120Z,988.19
2018-12-07T07:52:12.348Z,988.16
2018-12-07T07:53:12.557Z,988.15
2018-12-07T07:54:12.736Z,988.09
2018-12-07T07:55:13.017Z,988.09
2018-12-07T07:56:15.496Z,988.09
2018-12-07T07:57:13.295Z,988.11
2018-12-07T07:58:13.463Z,988.08
2018-12-07T07:59:13.742Z,988.07
2018-12-07T08:00:13.794Z,988.14
2018-12-07T08:01:13.964Z,988.08
2018-12-07T08:02:14.145Z,988.07
2018-12-07T08:03:14.529Z,987.99
2018-12-07T08:04:14.438Z,987.95
2018-12-07T08:05:14.601Z,988.02
2018-12-07T08:06:14.764Z,988.03
2018-12-07T08:07:14.933Z,987.95
2018-12-07T08:08:15.114Z,987.99
2018-12-07T08:09:15.271Z,987.92
2018-12-07T08:10:15.444Z,987.91
2018-12-07T08:11:15.620Z,987.96
2018-12-07T08:12:15.784Z,987.90
2018-12-07T08:13:15.961Z,987.90
2018-12-07T08:14:16.141Z,987.88
2018-12-07T08:15:16.301Z,987.88
2018-12-07T08:16:16.550Z,987.87
2018-12-07T08:17:16.576Z,987.85
2018-12-07T08:18:16.751Z,987.85
2018-12-07T08:19:16.920Z,987.80
2018-12-07T08:20:17.093Z,987.77
2018-12-07T08:21:17.276Z,987.75
2018-12-07T08:22:17.476Z,987.75
2018-12-07T08:23:18.460Z,987.75
2018-12-07T08:24:17.808Z,987.74
2018-12-07T08:25:17.973Z,987.72
2018-12-07T08:26:18.141Z,987.71
2018-12-07T08:27:18.391Z,987.68
2018-12-07T08:28:18.482Z,987.63
2018-12-07T08:29:18.644Z,987.61
2018-12-07T08:30:18.822Z,987.61
2018-12-07T08:31:18.995Z,987.64
2018-12-07T08:32:19.163Z,987.61
2018-12-07T08:33:19.327Z,987.55
2018-12-07T08:34:19.488Z,987.58
2018-12-07T08:35:19.655Z,987.59
2018-12-07T08:36:19.811Z,987.57
2018-12-07T08:37:20.060Z,987.62
2018-12-07T08:38:20.217Z,987.54
2018-12-07T08:39:20.365Z,987.57
2018-12-07T08:40:20.565Z,987.56
2018-12-07T08:41:20.724Z,987.53
2018-12-07T08:42:20.890Z,987.50
2018-12-07T08:43:21.185Z,987.51
2018-12-07T08:44:21.278Z,987.44
2018-12-07T08:45:21.449Z,987.54
2018-12-07T08:46:21.592Z,987.53
2018-12-07T08:47:21.761Z,987.46
2018-12-07T08:48:21.918Z,987.46
2018-12-07T08:49:22.086Z,987.44
2018-12-07T08:50:22.277Z,987.38
2018-12-07T08:51:22.467Z,987.41
2018-12-07T08:52:22.613Z,987.38
2018-12-07T08:53:22.776Z,987.37
2018-12-07T08:54:22.948Z,987.34
2018-12-07T08:55:23.114Z,987.34
2018-12-07T08:56:23.288Z,987.31
2018-12-07T08:57:23.441Z,987.33
2018-12-07T08:58:23.625Z,987.35
2018-12-07T08:59:23.781Z,987.33
2018-12-07T09:00:23.960Z,987.27
2018-12-07T09:01:24.153Z,987.29
2018-12-07T09:02:24.333Z,987.24
2018-12-07T09:03:24.516Z,987.25
2018-12-07T09:04:24.672Z,987.20
2018-12-07T09:05:24.839Z,987.20
2018-12-07T09:06:25.017Z,987.18
2018-12-07T09:07:25.370Z,987.09
2018-12-07T09:08:25.353Z,987.08
2018-12-07T09:09:25.841Z,987.16
2018-12-07T09:10:25.937Z,987.10
2018-12-07T09:11:25.881Z,987.12
2018-12-07T09:12:26.043Z,987.12
2018-12-07T09:13:26.211Z,987.14
2018-12-07T09:14:26.420Z,987.12
2018-12-07T09:15:27.469Z,987.20
2018-12-07T09:16:26.743Z,987.14
2018-12-07T09:17:26.947Z,987.16
2018-12-07T09:18:27.471Z,987.08
2018-12-07T09:19:27.313Z,987.06
2018-12-07T09:20:27.482Z,986.99
2018-12-07T09:21:27.658Z,986.96
2018-12-07T09:22:27.830Z,986.99
2018-12-07T09:23:27.997Z,986.98
2018-12-07T09:24:28.186Z,986.97
2018-12-07T09:25:28.415Z,986.96
2018-12-07T09:26:28.556Z,986.91
2018-12-07T09:27:28.742Z,986.92
2018-12-07T09:28:28.904Z,986.90
2018-12-07T09:29:29.075Z,986.81
2018-12-07T09:30:29.345Z,986.78
2018-12-07T09:31:29.802Z,986.87
2018-12-07T09:32:29.593Z,986.76
2018-12-07T09:33:30.247Z,986.78
2018-12-07T09:34:29.980Z,986.80
2018-12-07T09:35:33.454Z,986.78
2018-12-07T09:36:30.310Z,986.80
2018-12-07T09:37:30.475Z,986.81
2018-12-07T09:38:30.644Z,986.78
2018-12-07T09:39:30.818Z,986.79
2018-12-07T09:40:30.981Z,986.83
2018-12-07T09:41:31.154Z,986.81
2018-12-07T09:42:31.356Z,986.78
2018-12-07T09:43:34.747Z,986.78
2018-12-07T09:44:31.709Z,986.73
2018-12-07T09:45:31.869Z,986.76
2018-12-07T09:46:32.081Z,986.75
2018-12-07T09:47:32.288Z,986.74
2018-12-07T09:48:32.518Z,986.70
2018-12-07T09:49:32.790Z,986.68
2018-12-07T09:50:33.209Z,986.67
2018-12-07T09:51:32.857Z,986.73
2018-12-07T09:52:33.987Z,986.69
2018-12-07T09:53:34.486Z,986.73
2018-12-07T09:54:33.359Z,986.68
2018-12-07T09:55:33.506Z,986.68
2018-12-07T09:56:33.666Z,986.67
2018-12-07T09:57:33.880Z,986.69
2018-12-07T09:58:34.095Z,986.75
2018-12-07T09:59:34.143Z,986.75
2018-12-07T10:00:34.320Z,986.70
2018-12-07T10:01:34.656Z,986.69
2018-12-07T10:02:34.731Z,986.65
2018-12-07T10:03:34.891Z,986.66
2018-12-07T10:04:35.059Z,986.63
2018-12-07T10:05:35.246Z,986.64
2018-12-07T10:06:35.400Z,986.57
2018-12-07T10:07:35.579Z,986.60
2018-12-07T10:08:37.198Z,986.56
2018-12-07T10:09:35.919Z,986.51
2018-12-07T10:10:36.103Z,986.55
2018-12-07T10:11:36.263Z,986.44
2018-12-07T10:12:36.433Z,986.44
2018-12-07T10:13:36.604Z,986.37
2018-12-07T10:14:36.766Z,986.40
2018-12-07T10:15:36.956Z,986.37
2018-12-07T10:16:37.137Z,986.35
2018-12-07T10:17:37.309Z,986.37
2018-12-07T10:18:37.475Z,986.37
2018-12-07T10:19:37.649Z,986.28
2018-12-07T10:20:37.819Z,986.25
2018-12-07T10:21:37.986Z,986.30
2018-12-07T10:22:38.381Z,986.30
2018-12-07T10:23:38.550Z,986.30
2018-12-07T10:24:38.780Z,986.25
2018-12-07T10:25:38.705Z,986.22
2018-12-07T10:26:38.863Z,986.24
2018-12-07T10:27:39.209Z,986.26
2018-12-07T10:28:41.408Z,986.26
2018-12-07T10:29:39.677Z,986.19
2018-12-07T10:30:39.599Z,986.24
2018-12-07T10:31:39.605Z,986.17
2018-12-07T10:32:39.770Z,986.15
2018-12-07T10:33:39.936Z,986.12
2018-12-07T10:34:40.109Z,986.09
2018-12-07T10:35:40.286Z,986.06
2018-12-07T10:36:40.478Z,986.03
2018-12-07T10:37:40.632Z,986.02
2018-12-07T10:38:40.799Z,986.07
2018-12-07T10:39:40.967Z,986.06
2018-12-07T10:40:41.161Z,986.00
2018-12-07T10:41:41.659Z,985.92
2018-12-07T10:42:41.517Z,985.93
2018-12-07T10:43:41.682Z,985.90
2018-12-07T10:44:42.188Z,985.88
2018-12-07T10:45:42.365Z,985.84
2018-12-07T10:46:42.212Z,985.82
2018-12-07T10:47:42.395Z,985.74
2018-12-07T10:48:42.770Z,985.74
2018-12-07T10:49:42.753Z,985.82
2018-12-07T10:50:42.925Z,985.72
2018-12-07T10:51:43.101Z,985.68
2018-12-07T10:52:43.597Z,985.70
2018-12-07T10:53:43.395Z,985.70
2018-12-07T10:54:43.643Z,985.66
2018-12-07T10:55:43.777Z,985.60
2018-12-07T10:56:43.953Z,985.59
2018-12-07T10:57:44.229Z,985.66
2018-12-07T10:58:44.350Z,985.56
2018-12-07T10:59:44.582Z,985.50
2018-12-07T11:00:44.666Z,985.48
2018-12-07T11:01:44.829Z,985.48
2018-12-07T11:02:45.000Z,985.46
2018-12-07T11:03:45.189Z,985.46
2018-12-07T11:04:45.401Z,985.43
2018-12-07T11:05:45.581Z,985.45
2018-12-07T11:06:45.754Z,985.40
2018-12-07T11:07:46.062Z,985.39
2018-12-07T11:08:46.081Z,985.33
2018-12-07T11:09:46.240Z,985.29
2018-12-07T11:10:46.409Z,985.30
2018-12-07T11:11:47.108Z,985.27
2018-12-07T11:12:48.024Z,985.23
2018-12-07T11:13:46.922Z,985.22
2018-12-07T11:14:47.088Z,985.20
2018-12-07T11:15:47.604Z,985.23
2018-12-07T11:16:47.389Z,985.23
2018-12-07T11:17:47.541Z,985.18
2018-12-07T11:18:47.717Z,985.19
2018-12-07T11:19:47.934Z,985.20
2018-12-07T11:20:48.048Z,985.17
2018-12-07T11:21:48.217Z,985.22
2018-12-07T11:22:48.381Z,985.14
2018-12-07T11:23:48.602Z,985.15
2018-12-07T11:24:48.791Z,985.17
2018-12-07T11:25:48.959Z,985.13
2018-12-07T11:26:49.127Z,985.10
2018-12-07T11:27:49.308Z,985.07
2018-12-07T11:28:49.483Z,985.05
2018-12-07T11:29:49.708Z,985.02
2018-12-07T11:30:49.753Z,985.01
2018-12-07T11:31:49.936Z,985.00
2018-12-07T11:32:50.291Z,984.93
2018-12-07T11:33:50.325Z,984.96
2018-12-07T11:34:50.486Z,984.95
2018-12-07T11:35:50.665Z,984.92
2018-12-07T11:36:50.834Z,984.86
2018-12-07T11:37:51.207Z,984.86
2018-12-07T11:38:51.297Z,984.83
2018-12-07T11:39:51.393Z,984.81
2018-12-07T11:40:51.561Z,984.75
2018-12-07T11:41:51.731Z,984.70
2018-12-07T11:42:51.930Z,984.68
2018-12-07T11:43:52.073Z,984.66
2018-12-07T11:44:52.765Z,984.70
2018-12-07T11:45:52.433Z,984.56
2018-12-07T11:46:52.599Z,984.51
2018-12-07T11:47:52.758Z,984.50
2018-12-07T11:48:52.924Z,984.54
2018-12-07T11:49:53.092Z,984.46
2018-12-07T11:50:53.287Z,984.50
2018-12-07T11:51:53.482Z,984.41
2018-12-07T11:52:53.594Z,984.34
2018-12-07T11:53:53.773Z,984.34
2018-12-07T11:54:53.944Z,984.31
2018-12-07T11:55:54.108Z,984.37
2018-12-07T11:56:54.273Z,984.38
2018-12-07T11:57:54.443Z,984.44
2018-12-07T11:58:54.632Z,984.33
2018-12-07T11:59:54.794Z,984.29
2018-12-07T12:00:54.956Z,984.17
2018-12-07T12:01:55.122Z,984.22
2018-12-07T12:02:55.282Z,984.23
2018-12-07T12:03:55.442Z,984.24
2018-12-07T12:04:55.610Z,984.27
2018-12-07T12:05:55.846Z,984.16
2018-12-07T12:06:55.935Z,984.16
2018-12-07T12:07:56.115Z,984.11
2018-12-07T12:08:58.105Z,984.12
2018-12-07T12:09:59.303Z,984.17
2018-12-07T12:10:58.305Z,984.17
2018-12-07T12:11:57.718Z,984.06
2018-12-07T12:12:58.627Z,984.01
2018-12-07T12:13:58.069Z,983.98
2018-12-07T12:14:59.040Z,983.96
2018-12-07T12:15:59.922Z,984.06
2018-12-07T12:16:59.085Z,983.95
2018-12-07T12:17:59.789Z,983.94
2018-12-07T12:18:59.916Z,983.98
2018-12-07T12:19:59.208Z,983.95
2018-12-07T12:20:59.139Z,983.89
2018-12-07T12:22:00.303Z,983.84
2018-12-07T12:23:00.848Z,983.89
2018-12-07T12:24:00.615Z,983.81
2018-12-07T12:25:01.109Z,983.85
2018-12-07T12:26:01.484Z,983.71
2018-12-07T12:27:00.699Z,983.74
2018-12-07T12:28:01.026Z,983.67
2018-12-07T12:29:01.997Z,983.70
2018-12-07T12:30:01.619Z,983.63
2018-12-07T12:31:01.391Z,983.57